createdAt,value
2018-09-20T00:01:48.935Z,0.00
2018-09-20T00:02:48.909Z,0.00
2018-09-20T00:04:42.005Z,0.00
2018-09-20T00:05:41.988Z,0.00
2018-09-20T00:07:35.098Z,0.00
2018-09-20T00:08:35.072Z,0.00
2018-09-20T00:10:28.196Z,0.00
2018-09-20T00:11:28.156Z,0.00
2018-09-20T00:13:21.282Z,0.00
2018-09-20T00:14:21.255Z,0.00
2018-09-20T00:16:14.358Z,0.00
2018-09-20T00:17:14.335Z,0.00
2018-09-20T00:19:07.431Z,0.00
2018-09-20T00:20:07.417Z,0.00
2018-09-20T00:22:00.527Z,0.00
2018-09-20T00:23:00.503Z,0.00
2018-09-20T00:24:53.620Z,0.00
2018-09-20T00:25:53.603Z,0.00
2018-09-20T00:27:46.718Z,0.00
2018-09-20T00:28:46.692Z,0.00
2018-09-20T00:30:39.790Z,0.00
2018-09-20T00:31:39.771Z,0.00
2018-09-20T00:33:32.882Z,0.00
2018-09-20T00:34:32.860Z,0.00
2018-09-20T00:36:25.957Z,0.00
2018-09-20T00:37:25.936Z,0.00
2018-09-20T00:39:19.034Z,0.00
2018-09-20T00:40:19.018Z,0.00
2018-09-20T00:42:12.130Z,0.00
2018-09-20T00:43:12.102Z,0.00
2018-09-20T00:45:05.212Z,0.00
2018-09-20T00:46:05.197Z,0.00
2018-09-20T00:47:58.293Z,0.00
2018-09-20T00:48:58.273Z,0.00
2018-09-20T00:50:51.373Z,0.00
2018-09-20T00:51:51.349Z,0.00
2018-09-20T00:53:44.461Z,0.00
2018-09-20T00:54:44.432Z,0.00
2018-09-20T00:56:37.527Z,0.00
2018-09-20T00:57:37.510Z,0.00
2018-09-20T00:59:30.621Z,0.00
2018-09-20T01:00:30.645Z,0.00
2018-09-20T01:02:23.688Z,0.00
2018-09-20T01:03:23.673Z,0.00
2018-09-20T01:05:16.773Z,0.00
2018-09-20T01:06:16.752Z,0.00
2018-09-20T01:08:09.849Z,0.00
2018-09-20T01:09:09.830Z,0.00
2018-09-20T01:11:02.933Z,0.00
2018-09-20T01:12:02.909Z,0.00
2018-09-20T01:13:56.007Z,0.00
2018-09-20T01:14:55.991Z,0.00
2018-09-20T01:16:49.098Z,0.00
2018-09-20T01:17:49.072Z,0.00
2018-09-20T01:19:42.172Z,0.00
2018-09-20T01:20:42.155Z,0.00
2018-09-20T01:22:35.268Z,0.00
2018-09-20T01:23:35.234Z,0.00
2018-09-20T01:25:28.334Z,0.00
2018-09-20T01:26:28.312Z,0.00
2018-09-20T01:28:21.426Z,0.00
2018-09-20T01:29:21.393Z,0.00
2018-09-20T01:31:14.502Z,0.00
2018-09-20T01:32:14.486Z,0.00
2018-09-20T01:34:07.595Z,0.00
2018-09-20T01:35:07.566Z,0.00
2018-09-20T01:37:00.665Z,0.00
2018-09-20T01:38:00.648Z,0.00
2018-09-20T01:39:53.773Z,0.00
2018-09-20T01:40:53.736Z,0.00
2018-09-20T01:42:46.835Z,0.00
2018-09-20T01:43:46.818Z,0.00
2018-09-20T01:45:39.924Z,0.00
2018-09-20T01:46:39.915Z,0.00
2018-09-20T01:48:33.013Z,0.00
2018-09-20T01:49:32.980Z,0.00
2018-09-20T01:51:26.088Z,0.00
2018-09-20T01:52:26.063Z,0.00
2018-09-20T01:54:19.158Z,0.00
2018-09-20T01:55:19.140Z,0.00
2018-09-20T01:57:12.259Z,0.00
2018-09-20T01:58:12.218Z,0.00
2018-09-20T02:00:05.317Z,0.00
2018-09-20T02:01:05.298Z,0.00
2018-09-20T02:02:58.402Z,0.00
2018-09-20T02:03:58.378Z,0.00
2018-09-20T02:05:51.484Z,0.00
2018-09-20T02:06:51.454Z,0.00
2018-09-20T02:08:44.573Z,0.00
2018-09-20T02:09:44.544Z,0.00
2018-09-20T02:11:37.632Z,0.00
2018-09-20T02:12:37.615Z,0.00
2018-09-20T02:14:30.723Z,0.00
2018-09-20T02:15:30.690Z,0.00
2018-09-20T02:17:23.785Z,0.00
2018-09-20T02:18:23.768Z,0.00
2018-09-20T02:20:16.875Z,0.00
2018-09-20T02:21:16.848Z,0.00
2018-09-20T02:23:09.946Z,0.00
2018-09-20T02:24:09.924Z,0.00
2018-09-20T02:26:03.032Z,0.00
2018-09-20T02:27:03.000Z,0.00
2018-09-20T02:28:56.094Z,0.00
2018-09-20T02:29:56.076Z,0.00
2018-09-20T02:31:49.186Z,0.00
2018-09-20T02:32:49.148Z,0.00
2018-09-20T02:34:42.247Z,0.00
2018-09-20T02:35:42.233Z,0.00
2018-09-20T02:37:35.337Z,0.00
2018-09-20T02:38:35.313Z,0.00
2018-09-20T02:40:28.413Z,0.00
2018-09-20T02:41:28.398Z,0.00
2018-09-20T02:43:21.493Z,0.00
2018-09-20T02:44:21.471Z,0.00
2018-09-20T02:46:14.565Z,0.00
2018-09-20T02:47:14.550Z,0.00
2018-09-20T02:49:07.654Z,0.00
2018-09-20T02:50:07.623Z,0.00
2018-09-20T02:52:00.723Z,0.00
2018-09-20T02:53:00.703Z,0.00
2018-09-20T02:54:53.811Z,0.00
2018-09-20T02:55:53.786Z,0.00
2018-09-20T02:57:46.901Z,0.00
2018-09-20T02:58:46.897Z,0.00
2018-09-20T03:00:39.992Z,0.00
2018-09-20T03:01:39.963Z,0.00
2018-09-20T03:03:33.063Z,0.00
2018-09-20T03:04:33.043Z,0.00
2018-09-20T03:06:26.155Z,0.00
2018-09-20T03:07:26.124Z,0.00
2018-09-20T03:09:19.220Z,0.00
2018-09-20T03:10:19.205Z,0.00
2018-09-20T03:12:12.342Z,0.00
2018-09-20T03:13:12.278Z,0.00
2018-09-20T03:15:05.380Z,0.00
2018-09-20T03:16:05.363Z,0.00
2018-09-20T03:17:58.469Z,0.00
2018-09-20T03:18:58.445Z,0.00
2018-09-20T03:20:51.553Z,0.00
2018-09-20T03:21:51.523Z,0.00
2018-09-20T03:23:44.637Z,0.00
2018-09-20T03:24:44.606Z,0.00
2018-09-20T03:26:37.709Z,0.00
2018-09-20T03:27:37.693Z,0.00
2018-09-20T03:29:30.801Z,0.00
2018-09-20T03:30:30.887Z,0.00
2018-09-20T03:32:24.036Z,0.00
2018-09-20T03:33:23.867Z,0.00
2018-09-20T03:35:16.959Z,0.00
2018-09-20T03:36:16.931Z,0.00
2018-09-20T03:38:10.031Z,0.00
2018-09-20T03:39:10.020Z,0.00
2018-09-20T03:41:03.121Z,0.00
2018-09-20T03:42:03.090Z,0.00
2018-09-20T03:43:56.190Z,0.00
2018-09-20T03:44:56.168Z,0.00
2018-09-20T03:46:49.281Z,0.00
2018-09-20T03:47:49.254Z,0.00
2018-09-20T03:49:42.351Z,0.00
2018-09-20T03:50:42.330Z,0.00
2018-09-20T03:52:35.442Z,0.00
2018-09-20T03:53:35.412Z,0.00
2018-09-20T03:55:28.508Z,0.00
2018-09-20T03:56:28.491Z,0.00
2018-09-20T03:58:21.606Z,0.00
2018-09-20T03:59:21.579Z,0.00
2018-09-20T04:01:14.679Z,0.00
2018-09-20T04:02:14.652Z,0.00
2018-09-20T04:04:07.769Z,0.00
2018-09-20T04:05:07.742Z,0.00
2018-09-20T04:07:00.835Z,0.00
2018-09-20T04:08:00.814Z,0.00
2018-09-20T04:09:53.924Z,0.00
2018-09-20T04:10:53.898Z,0.00
2018-09-20T04:12:47.000Z,0.00
2018-09-20T04:13:46.977Z,0.00
2018-09-20T04:15:40.090Z,0.00
2018-09-20T04:16:40.059Z,0.00
2018-09-20T04:18:33.157Z,0.00
2018-09-20T04:19:33.140Z,0.00
2018-09-20T04:21:26.247Z,0.00
2018-09-20T04:22:26.218Z,0.00
2018-09-20T04:24:19.403Z,0.00
2018-09-20T04:25:19.303Z,0.00
2018-09-20T04:27:12.408Z,0.00
2018-09-20T04:28:12.383Z,0.00
2018-09-20T04:30:05.484Z,0.00
2018-09-20T04:31:05.466Z,0.00
2018-09-20T04:32:58.572Z,0.00
2018-09-20T04:33:58.551Z,0.00
2018-09-20T04:35:51.642Z,4.00
2018-09-20T04:36:51.629Z,0.00
2018-09-20T04:38:44.752Z,4.00
2018-09-20T04:39:44.724Z,4.00
2018-09-20T04:41:37.825Z,4.00
2018-09-20T04:42:37.804Z,8.00
2018-09-20T04:44:30.910Z,8.00
2018-09-20T04:45:30.884Z,8.00
2018-09-20T04:47:23.979Z,16.00
2018-09-20T04:48:23.962Z,20.00
2018-09-20T04:50:17.065Z,28.00
2018-09-20T04:51:17.045Z,32.00
2018-09-20T04:53:10.192Z,44.00
2018-09-20T04:54:10.123Z,48.00
2018-09-20T04:56:03.235Z,68.00
2018-09-20T04:57:03.205Z,84.00
2018-09-20T04:58:56.297Z,116.00
2018-09-20T04:59:56.289Z,140.00
2018-09-20T05:01:49.384Z,184.00
2018-09-20T05:02:49.360Z,212.00
2018-09-20T05:04:42.460Z,272.00
2018-09-20T05:05:42.437Z,308.00
2018-09-20T05:07:35.541Z,380.00
2018-09-20T05:08:35.523Z,416.00
2018-09-20T05:10:28.615Z,496.00
2018-09-20T05:11:28.598Z,548.00
2018-09-20T05:13:21.702Z,652.00
2018-09-20T05:14:21.673Z,716.00
2018-09-20T05:16:14.767Z,856.00
2018-09-20T05:17:14.747Z,940.00
2018-09-20T05:19:07.860Z,1124.00
2018-09-20T05:20:07.873Z,1232.00
2018-09-20T05:22:00.933Z,1472.00
2018-09-20T05:23:00.909Z,1608.00
2018-09-20T05:24:54.018Z,1876.00
2018-09-20T05:25:53.989Z,2020.00
2018-09-20T05:27:47.092Z,2244.00
2018-09-20T05:28:47.072Z,2376.00
2018-09-20T05:30:40.178Z,2700.00
2018-09-20T05:31:41.160Z,2892.00
2018-09-20T05:33:33.251Z,3272.00
2018-09-20T05:34:33.233Z,3468.00
2018-09-20T05:36:26.347Z,3896.00
2018-09-20T05:37:26.318Z,4076.00
2018-09-20T05:39:19.426Z,4320.00
2018-09-20T05:40:19.399Z,4520.00
2018-09-20T05:42:12.501Z,4668.00
2018-09-20T05:43:12.477Z,4652.00
2018-09-20T05:45:05.574Z,5080.00
2018-09-20T05:46:05.559Z,5352.00
2018-09-20T05:47:58.679Z,5756.00
2018-09-20T05:48:58.672Z,6232.00
2018-09-20T05:50:51.819Z,6568.00
2018-09-20T05:51:51.749Z,6956.00
2018-09-20T05:53:44.854Z,7760.00
2018-09-20T05:54:44.831Z,8008.00
2018-09-20T05:56:37.930Z,8764.00
2018-09-20T05:57:37.913Z,9180.00
2018-09-20T05:59:31.018Z,9600.00
2018-09-20T06:00:30.995Z,9784.00
2018-09-20T06:02:24.140Z,10132.00
2018-09-20T06:03:24.077Z,9864.00
2018-09-20T06:05:17.187Z,10152.00
2018-09-20T06:06:17.163Z,10340.00
2018-09-20T06:08:10.283Z,11028.00
2018-09-20T06:09:10.273Z,11640.00
2018-09-20T06:11:03.379Z,12552.00
2018-09-20T06:12:03.357Z,13000.00
2018-09-20T06:13:56.477Z,12708.00
2018-09-20T06:14:56.463Z,12348.00
2018-09-20T06:16:49.578Z,12316.00
2018-09-20T06:17:49.558Z,11236.00
2018-09-20T06:19:42.668Z,10044.00
2018-09-20T06:20:42.654Z,10008.00
2018-09-20T06:22:35.760Z,9740.00
2018-09-20T06:23:35.747Z,9784.00
2018-09-20T06:25:28.849Z,10804.00
2018-09-20T06:26:28.838Z,10700.00
2018-09-20T06:28:21.952Z,10384.00
2018-09-20T06:29:21.933Z,10436.00
2018-09-20T06:31:15.046Z,11284.00
2018-09-20T06:32:15.029Z,13208.00
2018-09-20T06:34:08.136Z,15872.00
2018-09-20T06:35:08.114Z,18720.00
2018-09-20T06:37:01.279Z,23904.00
2018-09-20T06:38:01.204Z,20800.00
2018-09-20T06:39:54.322Z,16544.00
2018-09-20T06:40:54.311Z,21408.00
2018-09-20T06:42:47.411Z,21600.00
2018-09-20T06:43:47.394Z,17568.00
2018-09-20T06:45:40.505Z,16448.00
2018-09-20T06:46:40.485Z,16512.00
2018-09-20T06:48:33.590Z,17120.00
2018-09-20T06:49:33.573Z,16192.00
2018-09-20T06:51:26.689Z,17408.00
2018-09-20T06:52:26.660Z,18752.00
2018-09-20T06:54:19.773Z,19648.00
2018-09-20T06:55:19.756Z,20640.00
2018-09-20T06:57:12.875Z,26432.00
2018-09-20T06:58:12.849Z,30720.00
2018-09-20T07:00:05.955Z,37184.00
2018-09-20T07:01:05.941Z,38080.00
2018-09-20T07:02:59.154Z,45568.00
2018-09-20T07:03:59.049Z,47968.00
2018-09-20T07:05:52.152Z,49568.00
2018-09-20T07:06:52.138Z,50912.00
2018-09-20T07:08:45.250Z,46656.00
2018-09-20T07:09:45.233Z,47264.00
2018-09-20T07:11:38.347Z,49504.00
2018-09-20T07:12:38.337Z,40288.00
2018-09-20T07:14:31.452Z,28896.00
2018-09-20T07:15:31.434Z,29568.00
2018-09-20T07:17:24.547Z,33440.00
2018-09-20T07:18:24.533Z,41280.00
2018-09-20T07:20:17.648Z,39520.00
2018-09-20T07:21:17.631Z,37440.00
2018-09-20T07:23:10.748Z,41376.00
2018-09-20T07:24:10.733Z,43552.00
2018-09-20T07:26:03.853Z,47648.00
2018-09-20T07:27:03.836Z,45024.00
2018-09-20T07:28:56.951Z,44992.00
2018-09-20T07:29:56.947Z,42432.00
2018-09-20T07:31:50.069Z,42080.00
2018-09-20T07:32:50.093Z,39104.00
2018-09-20T07:34:43.160Z,38592.00
2018-09-20T07:35:43.147Z,41120.00
2018-09-20T07:37:36.276Z,40384.00
2018-09-20T07:38:36.251Z,42496.00
2018-09-20T07:40:29.367Z,45696.00
2018-09-20T07:41:29.357Z,46944.00
2018-09-20T07:43:22.525Z,49600.00
2018-09-20T07:44:22.462Z,54784.00
2018-09-20T07:46:15.582Z,58944.00
2018-09-20T07:47:15.570Z,56192.00
2018-09-20T07:49:08.697Z,65600.00
2018-09-20T07:50:08.680Z,76096.00
2018-09-20T07:52:01.795Z,47552.00
2018-09-20T07:53:01.786Z,56384.00
2018-09-20T07:54:54.903Z,39392.00
2018-09-20T07:55:54.886Z,32736.00
2018-09-20T07:57:48.012Z,31552.00
2018-09-20T07:58:48.000Z,29088.00
2018-09-20T08:00:41.125Z,30976.00
2018-09-20T08:01:41.180Z,36160.00
2018-09-20T08:03:34.220Z,35136.00
2018-09-20T08:04:34.213Z,38176.00
2018-09-20T08:06:27.334Z,38496.00
2018-09-20T08:07:27.322Z,38400.00
2018-09-20T08:09:20.437Z,37408.00
2018-09-20T08:10:20.428Z,35680.00
2018-09-20T08:12:13.565Z,33088.00
2018-09-20T08:13:13.553Z,39360.00
2018-09-20T08:15:06.678Z,39488.00
2018-09-20T08:16:06.661Z,35264.00
2018-09-20T08:17:59.791Z,34112.00
2018-09-20T08:18:59.771Z,32512.00
2018-09-20T08:20:52.895Z,30976.00
2018-09-20T08:21:52.892Z,28736.00
2018-09-20T08:23:46.007Z,24864.00
2018-09-20T08:24:45.996Z,27936.00
2018-09-20T08:26:39.105Z,28832.00
2018-09-20T08:27:39.108Z,25888.00
2018-09-20T08:29:32.229Z,28224.00
2018-09-20T08:30:32.205Z,31136.00
2018-09-20T08:32:25.322Z,31456.00
2018-09-20T08:33:25.311Z,29856.00
2018-09-20T08:35:18.478Z,34752.00
2018-09-20T08:36:18.450Z,34912.00
2018-09-20T08:38:11.570Z,34944.00
2018-09-20T08:39:11.564Z,39520.00
2018-09-20T08:41:04.689Z,58240.00
2018-09-20T08:42:04.731Z,60576.00
2018-09-20T08:43:57.816Z,62944.00
2018-09-20T08:44:57.787Z,59488.00
2018-09-20T08:46:50.921Z,45440.00
2018-09-20T08:47:50.903Z,38240.00
2018-09-20T08:49:44.015Z,33760.00
2018-09-20T08:50:44.021Z,33536.00
2018-09-20T08:52:37.146Z,33024.00
2018-09-20T08:53:37.131Z,32608.00
2018-09-20T08:55:30.254Z,32352.00
2018-09-20T08:56:30.251Z,32352.00
2018-09-20T08:58:23.382Z,32096.00
2018-09-20T08:59:23.369Z,32032.00
2018-09-20T09:01:16.504Z,31904.00
2018-09-20T09:02:16.497Z,31744.00
2018-09-20T09:04:09.628Z,32000.00
2018-09-20T09:05:09.615Z,32128.00
2018-09-20T09:07:02.766Z,32192.00
2018-09-20T09:08:02.743Z,32320.00
2018-09-20T09:09:55.917Z,31648.00
2018-09-20T09:10:55.901Z,31904.00
2018-09-20T09:12:49.032Z,31936.00
2018-09-20T09:13:49.010Z,31680.00
2018-09-20T09:15:42.132Z,31360.00
2018-09-20T09:16:42.127Z,29056.00
2018-09-20T09:18:35.270Z,28992.00
2018-09-20T09:19:35.263Z,27552.00
2018-09-20T09:21:28.370Z,29536.00
2018-09-20T09:22:28.368Z,28992.00
2018-09-20T09:24:21.509Z,27520.00
2018-09-20T09:25:21.498Z,24608.00
2018-09-20T09:27:14.611Z,27232.00
2018-09-20T09:28:14.611Z,29952.00
2018-09-20T09:30:07.736Z,31360.00
2018-09-20T09:31:07.724Z,32192.00
2018-09-20T09:33:00.852Z,33216.00
2018-09-20T09:34:00.875Z,32256.00
2018-09-20T09:35:53.965Z,31872.00
2018-09-20T09:36:53.958Z,31168.00
2018-09-20T09:38:47.091Z,30784.00
2018-09-20T09:39:47.085Z,30528.00
2018-09-20T09:41:40.220Z,30208.00
2018-09-20T09:42:40.209Z,29856.00
2018-09-20T09:44:33.326Z,29536.00
2018-09-20T09:45:33.319Z,29280.00
2018-09-20T09:47:26.460Z,28896.00
2018-09-20T09:48:26.444Z,28736.00
2018-09-20T09:50:19.575Z,28512.00
2018-09-20T09:51:19.560Z,28576.00
2018-09-20T09:53:12.704Z,28576.00
2018-09-20T09:54:12.697Z,28512.00
2018-09-20T09:56:05.832Z,28896.00
2018-09-20T09:57:05.809Z,29056.00
2018-09-20T09:58:58.974Z,29760.00
2018-09-20T09:59:58.971Z,29792.00
2018-09-20T10:01:52.081Z,29664.00
2018-09-20T10:02:52.080Z,29696.00
2018-09-20T10:04:45.214Z,29696.00
2018-09-20T10:05:45.204Z,29472.00
2018-09-20T10:07:38.369Z,28832.00
2018-09-20T10:08:38.317Z,28736.00
2018-09-20T10:10:31.453Z,28960.00
2018-09-20T10:11:31.438Z,28544.00
2018-09-20T10:13:24.601Z,28288.00
2018-09-20T10:14:24.561Z,28192.00
2018-09-20T10:16:17.696Z,28256.00
2018-09-20T10:17:17.713Z,28256.00
2018-09-20T10:19:10.812Z,27840.00
2018-09-20T10:20:10.809Z,27840.00
2018-09-20T10:22:03.929Z,27712.00
2018-09-20T10:23:03.925Z,27712.00
2018-09-20T10:24:57.065Z,27616.00
2018-09-20T10:25:57.071Z,27648.00
2018-09-20T10:27:50.180Z,27392.00
2018-09-20T10:28:50.171Z,27136.00
2018-09-20T10:30:43.343Z,27392.00
2018-09-20T10:31:43.297Z,27168.00
2018-09-20T10:33:36.440Z,27392.00
2018-09-20T10:34:36.438Z,27040.00
2018-09-20T10:36:29.577Z,26912.00
2018-09-20T10:37:29.564Z,27424.00
2018-09-20T10:39:22.704Z,26656.00
2018-09-20T10:40:22.699Z,26368.00
2018-09-20T10:42:15.837Z,26208.00
2018-09-20T10:43:15.826Z,26432.00
2018-09-20T10:45:08.946Z,26848.00
2018-09-20T10:46:08.947Z,26880.00
2018-09-20T10:48:02.084Z,27136.00
2018-09-20T10:49:02.064Z,26944.00
2018-09-20T10:50:55.244Z,27360.00
2018-09-20T10:51:55.177Z,27232.00
2018-09-20T10:53:48.312Z,25760.00
2018-09-20T10:54:48.304Z,26528.00
2018-09-20T10:56:41.436Z,26240.00
2018-09-20T10:57:41.425Z,26112.00
2018-09-20T10:59:34.568Z,25440.00
2018-09-20T11:00:34.547Z,25600.00
2018-09-20T11:02:27.677Z,25280.00
2018-09-20T11:03:27.702Z,25216.00
2018-09-20T11:05:20.817Z,25184.00
2018-09-20T11:06:20.798Z,24928.00
2018-09-20T11:08:13.924Z,24768.00
2018-09-20T11:09:13.919Z,24352.00
2018-09-20T11:11:07.083Z,23808.00
2018-09-20T11:12:07.043Z,23648.00
2018-09-20T11:14:00.166Z,24160.00
2018-09-20T11:15:00.161Z,23648.00
2018-09-20T11:16:53.309Z,23936.00
2018-09-20T11:17:53.285Z,23904.00
2018-09-20T11:19:46.411Z,23328.00
2018-09-20T11:20:46.403Z,23168.00
2018-09-20T11:22:39.543Z,21440.00
2018-09-20T11:23:39.525Z,20512.00
2018-09-20T11:25:32.655Z,20736.00
2018-09-20T11:26:32.654Z,20960.00
2018-09-20T11:28:25.784Z,19680.00
2018-09-20T11:29:25.769Z,19072.00
2018-09-20T11:31:18.899Z,18912.00
2018-09-20T11:32:18.901Z,19360.00
2018-09-20T11:34:12.015Z,17284.00
2018-09-20T11:35:12.009Z,17004.00
2018-09-20T11:37:05.134Z,18528.00
2018-09-20T11:38:05.134Z,19136.00
2018-09-20T11:39:58.269Z,18560.00
2018-09-20T11:40:58.255Z,19776.00
2018-09-20T11:42:51.423Z,20032.00
2018-09-20T11:43:51.421Z,20384.00
2018-09-20T11:45:44.563Z,19872.00
2018-09-20T11:46:44.555Z,19840.00
2018-09-20T11:48:37.679Z,18528.00
2018-09-20T11:49:37.667Z,16656.00
2018-09-20T11:51:30.805Z,18848.00
2018-09-20T11:52:30.791Z,19712.00
2018-09-20T11:54:23.915Z,19424.00
2018-09-20T11:55:23.914Z,19392.00
2018-09-20T11:57:17.051Z,19232.00
2018-09-20T11:58:17.041Z,19040.00
2018-09-20T12:00:10.176Z,18784.00
2018-09-20T12:01:10.190Z,18560.00
2018-09-20T12:03:03.317Z,14184.00
2018-09-20T12:04:03.309Z,18112.00
2018-09-20T12:05:56.447Z,17688.00
2018-09-20T12:06:56.424Z,17608.00
2018-09-20T12:08:49.559Z,17280.00
2018-09-20T12:09:49.540Z,16996.00
2018-09-20T12:11:42.669Z,16880.00
2018-09-20T12:12:42.668Z,16772.00
2018-09-20T12:14:35.825Z,16416.00
2018-09-20T12:15:35.797Z,16328.00
2018-09-20T12:17:28.929Z,15972.00
2018-09-20T12:18:28.925Z,15664.00
2018-09-20T12:20:22.054Z,15316.00
2018-09-20T12:21:22.051Z,15164.00
2018-09-20T12:23:15.169Z,15228.00
2018-09-20T12:24:15.159Z,15116.00
2018-09-20T12:26:08.288Z,14888.00
2018-09-20T12:27:08.273Z,14724.00
2018-09-20T12:29:01.398Z,14528.00
2018-09-20T12:30:01.394Z,14392.00
2018-09-20T12:31:54.539Z,14336.00
2018-09-20T12:32:54.600Z,14240.00
2018-09-20T12:34:47.658Z,14120.00
2018-09-20T12:35:47.790Z,14000.00
2018-09-20T12:37:40.787Z,13904.00
2018-09-20T12:38:40.829Z,13920.00
2018-09-20T12:40:33.893Z,13940.00
2018-09-20T12:41:33.891Z,13876.00
2018-09-20T12:43:27.020Z,13856.00
2018-09-20T12:44:27.001Z,13796.00
2018-09-20T12:46:20.124Z,11068.00
2018-09-20T12:47:20.118Z,13600.00
2018-09-20T12:49:13.250Z,12864.00
2018-09-20T12:50:13.232Z,13420.00
2018-09-20T12:52:06.356Z,13236.00
2018-09-20T12:53:06.352Z,13196.00
2018-09-20T12:54:59.496Z,13012.00
2018-09-20T12:55:59.475Z,12888.00
2018-09-20T12:57:52.592Z,12540.00
2018-09-20T12:58:52.593Z,12424.00
2018-09-20T13:00:45.756Z,12160.00
2018-09-20T13:01:45.714Z,11984.00
2018-09-20T13:03:38.830Z,11696.00
2018-09-20T13:04:38.823Z,11592.00
2018-09-20T13:06:31.960Z,11356.00
2018-09-20T13:07:31.945Z,11260.00
2018-09-20T13:09:25.075Z,11044.00
2018-09-20T13:10:25.058Z,10944.00
2018-09-20T13:12:18.185Z,10764.00
2018-09-20T13:13:18.167Z,10676.00
2018-09-20T13:15:11.299Z,10424.00
2018-09-20T13:16:11.291Z,10332.00
2018-09-20T13:18:04.435Z,10184.00
2018-09-20T13:19:04.413Z,10044.00
2018-09-20T13:20:57.533Z,9800.00
2018-09-20T13:21:57.526Z,9660.00
2018-09-20T13:23:50.656Z,9532.00
2018-09-20T13:24:50.632Z,9448.00
2018-09-20T13:26:43.759Z,9288.00
2018-09-20T13:27:43.749Z,9180.00
2018-09-20T13:29:36.876Z,9028.00
2018-09-20T13:30:36.860Z,8984.00
2018-09-20T13:32:29.986Z,8772.00
2018-09-20T13:33:29.969Z,8676.00
2018-09-20T13:35:23.092Z,8572.00
2018-09-20T13:36:23.072Z,8488.00
2018-09-20T13:38:16.197Z,8356.00
2018-09-20T13:39:16.188Z,8276.00
2018-09-20T13:41:09.316Z,8148.00
2018-09-20T13:42:09.300Z,8036.00
2018-09-20T13:44:02.413Z,7892.00
2018-09-20T13:45:02.407Z,7820.00
2018-09-20T13:46:55.592Z,7688.00
2018-09-20T13:47:55.518Z,7640.00
2018-09-20T13:49:48.642Z,7500.00
2018-09-20T13:50:48.678Z,7416.00
2018-09-20T13:52:41.768Z,7300.00
2018-09-20T13:53:41.747Z,7224.00
2018-09-20T13:55:34.855Z,7136.00
2018-09-20T13:56:34.907Z,7092.00
2018-09-20T13:58:27.968Z,6940.00
2018-09-20T13:59:27.951Z,6888.00
2018-09-20T14:01:21.074Z,6780.00
2018-09-20T14:02:21.063Z,6732.00
2018-09-20T14:04:14.191Z,6584.00
2018-09-20T14:05:14.169Z,6516.00
2018-09-20T14:07:07.295Z,6400.00
2018-09-20T14:08:07.340Z,6332.00
2018-09-20T14:10:00.394Z,6176.00
2018-09-20T14:11:00.374Z,6048.00
2018-09-20T14:12:53.506Z,5724.00
2018-09-20T14:13:53.495Z,5520.00
2018-09-20T14:15:46.625Z,5140.00
2018-09-20T14:16:46.602Z,4948.00
2018-09-20T14:18:39.783Z,4640.00
2018-09-20T14:19:39.738Z,4488.00
2018-09-20T14:21:32.870Z,4224.00
2018-09-20T14:22:32.854Z,4068.00
2018-09-20T14:24:25.957Z,3928.00
2018-09-20T14:25:25.948Z,3916.00
2018-09-20T14:27:19.095Z,3900.00
2018-09-20T14:28:19.065Z,3904.00
2018-09-20T14:30:12.189Z,3908.00
2018-09-20T14:31:12.164Z,3892.00
2018-09-20T14:33:05.287Z,3876.00
2018-09-20T14:34:05.269Z,3868.00
2018-09-20T14:35:58.376Z,3856.00
2018-09-20T14:36:58.366Z,3840.00
2018-09-20T14:38:51.492Z,3808.00
2018-09-20T14:39:51.472Z,3792.00
2018-09-20T14:41:44.582Z,3772.00
2018-09-20T14:42:44.595Z,3768.00
2018-09-20T14:44:37.695Z,3784.00
2018-09-20T14:45:37.675Z,3788.00
2018-09-20T14:47:30.786Z,3792.00
2018-09-20T14:48:30.770Z,3792.00
2018-09-20T14:50:23.896Z,3804.00
2018-09-20T14:51:23.866Z,3804.00
2018-09-20T14:53:17.071Z,3788.00
2018-09-20T14:54:17.039Z,3776.00
2018-09-20T14:56:10.114Z,3764.00
2018-09-20T14:57:10.093Z,3764.00
2018-09-20T14:59:03.237Z,3764.00
2018-09-20T15:00:03.199Z,3764.00
2018-09-20T15:01:56.329Z,3752.00
2018-09-20T15:02:56.303Z,3744.00
2018-09-20T15:04:49.414Z,3720.00
2018-09-20T15:05:49.401Z,3712.00
2018-09-20T15:07:42.530Z,3700.00
2018-09-20T15:08:42.504Z,3692.00
2018-09-20T15:10:35.606Z,3668.00
2018-09-20T15:11:35.600Z,3648.00
2018-09-20T15:13:28.714Z,3632.00
2018-09-20T15:14:28.689Z,3628.00
2018-09-20T15:16:21.808Z,3624.00
2018-09-20T15:17:21.793Z,3616.00
2018-09-20T15:19:14.917Z,3604.00
2018-09-20T15:20:14.898Z,3596.00
2018-09-20T15:22:08.002Z,3600.00
2018-09-20T15:23:07.997Z,3608.00
2018-09-20T15:25:01.124Z,3632.00
2018-09-20T15:26:01.095Z,3640.00
2018-09-20T15:27:54.207Z,3648.00
2018-09-20T15:28:54.204Z,3640.00
2018-09-20T15:30:47.320Z,3636.00
2018-09-20T15:31:47.296Z,3628.00
2018-09-20T15:33:40.404Z,3616.00
2018-09-20T15:34:40.386Z,3612.00
2018-09-20T15:36:33.515Z,3588.00
2018-09-20T15:37:33.493Z,3572.00
2018-09-20T15:39:26.609Z,3552.00
2018-09-20T15:40:26.597Z,3540.00
2018-09-20T15:42:19.726Z,3500.00
2018-09-20T15:43:19.700Z,3476.00
2018-09-20T15:45:12.813Z,3444.00
2018-09-20T15:46:12.803Z,3420.00
2018-09-20T15:48:05.925Z,3372.00
2018-09-20T15:49:05.902Z,3352.00
2018-09-20T15:50:59.012Z,3320.00
2018-09-20T15:51:59.004Z,3292.00
2018-09-20T15:53:52.118Z,3248.00
2018-09-20T15:54:52.094Z,3216.00
2018-09-20T15:56:45.208Z,3164.00
2018-09-20T15:57:45.205Z,3128.00
2018-09-20T15:59:38.318Z,3076.00
2018-09-20T16:00:38.296Z,3048.00
2018-09-20T16:02:31.423Z,3004.00
2018-09-20T16:03:31.388Z,2980.00
2018-09-20T16:05:24.511Z,2940.00
2018-09-20T16:06:24.489Z,2916.00
2018-09-20T16:08:17.598Z,2876.00
2018-09-20T16:09:17.591Z,2852.00
2018-09-20T16:11:10.707Z,2816.00
2018-09-20T16:12:10.688Z,2800.00
2018-09-20T16:14:03.797Z,2760.00
2018-09-20T16:15:03.788Z,2736.00
2018-09-20T16:16:56.898Z,2704.00
2018-09-20T16:17:56.882Z,2684.00
2018-09-20T16:19:49.995Z,2648.00
2018-09-20T16:20:49.986Z,2628.00
2018-09-20T16:22:43.096Z,2592.00
2018-09-20T16:23:43.163Z,2572.00
2018-09-20T16:25:36.208Z,2528.00
2018-09-20T16:26:36.194Z,2508.00
2018-09-20T16:28:29.287Z,2460.00
2018-09-20T16:29:29.278Z,2436.00
2018-09-20T16:31:22.433Z,2376.00
2018-09-20T16:32:22.413Z,2356.00
2018-09-20T16:34:15.531Z,2316.00
2018-09-20T16:35:15.513Z,2296.00
2018-09-20T16:37:08.633Z,2252.00
2018-09-20T16:38:08.614Z,2232.00
2018-09-20T16:40:01.720Z,2180.00
2018-09-20T16:41:01.714Z,2144.00
2018-09-20T16:42:54.819Z,2072.00
2018-09-20T16:43:54.797Z,2020.00
2018-09-20T16:45:47.923Z,1928.00
2018-09-20T16:46:47.896Z,1884.00
2018-09-20T16:48:41.005Z,1784.00
2018-09-20T16:49:40.992Z,1736.00
2018-09-20T16:51:34.155Z,1656.00
2018-09-20T16:52:34.104Z,1608.00
2018-09-20T16:54:27.201Z,1516.00
2018-09-20T16:55:27.199Z,1468.00
2018-09-20T16:57:20.306Z,1376.00
2018-09-20T16:58:20.282Z,1328.00
2018-09-20T17:00:13.395Z,1252.00
2018-09-20T17:01:13.379Z,1212.00
2018-09-20T17:03:06.495Z,1128.00
2018-09-20T17:04:06.476Z,1088.00
2018-09-20T17:05:59.587Z,1008.00
2018-09-20T17:06:59.587Z,964.00
2018-09-20T17:08:52.689Z,884.00
2018-09-20T17:09:52.661Z,840.00
2018-09-20T17:11:45.785Z,760.00
2018-09-20T17:14:19.936Z,664.00
2018-09-20T17:15:52.001Z,580.00
2018-09-20T17:16:51.978Z,536.00
2018-09-20T17:18:45.089Z,460.00
2018-09-20T17:19:45.073Z,424.00
2018-09-20T17:21:38.189Z,356.00
2018-09-20T17:22:38.168Z,328.00
2018-09-20T17:24:31.284Z,268.00
2018-09-20T17:25:31.315Z,244.00
2018-09-20T17:27:24.387Z,204.00
2018-09-20T17:28:24.361Z,184.00
2018-09-20T17:30:17.465Z,152.00
2018-09-20T17:31:17.453Z,136.00
2018-09-20T17:33:10.568Z,112.00
2018-09-20T17:34:10.548Z,92.00
2018-09-20T17:36:03.656Z,76.00
2018-09-20T17:37:03.648Z,64.00
2018-09-20T17:38:56.768Z,48.00
2018-09-20T17:39:56.744Z,40.00
2018-09-20T17:41:49.854Z,32.00
2018-09-20T17:42:49.842Z,24.00
2018-09-20T17:44:42.964Z,20.00